sensor_id;sensor_type;location;lat;lon;timestamp;P1;durP1;ratioP1;P2;durP2;ratioP2
37477;SDS011;23334;54.316;10.182;2023-11-19T00:01:51;9.07;;;4.87;;
37477;SDS011;23334;54.316;10.182;2023-11-19T00:04:16;8.80;;;4.70;;
37477;SDS011;23334;54.316;10.182;2023-11-19T00:06:42;13.83;;;5.27;;
37477;SDS011;23334;54.316;10.182;2023-11-19T00:09:08;8.37;;;4.37;;
37477;SDS011;23334;54.316;10.182;2023-11-19T00:11:34;9.70;;;4.80;;
37477;SDS011;23334;54.316;10.182;2023-11-19T00:14:01;8.13;;;4.47;;
37477;SDS011;23334;54.316;10.182;2023-11-19T00:16:26;9.93;;;4.77;;
37477;SDS011;23334;54.316;10.182;2023-11-19T00:18:53;8.87;;;4.47;;
37477;SDS011;23334;54.316;10.182;2023-11-19T00:21:18;7.20;;;4.00;;
37477;SDS011;23334;54.316;10.182;2023-11-19T00:23:44;14.10;;;4.93;;
37477;SDS011;23334;54.316;10.182;2023-11-19T00:26:10;9.80;;;4.73;;
37477;SDS011;23334;54.316;10.182;2023-11-19T00:28:37;7.00;;;3.97;;
37477;SDS011;23334;54.316;10.182;2023-11-19T00:31:03;11.10;;;5.20;;
37477;SDS011;23334;54.316;10.182;2023-11-19T00:33:29;17.80;;;5.83;;
37477;SDS011;23334;54.316;10.182;2023-11-19T00:35:56;9.47;;;5.13;;
37477;SDS011;23334;54.316;10.182;2023-11-19T00:38:21;7.60;;;4.90;;
37477;SDS011;23334;54.316;10.182;2023-11-19T00:40:47;10.30;;;4.93;;
37477;SDS011;23334;54.316;10.182;2023-11-19T00:43:13;6.13;;;4.10;;
37477;SDS011;23334;54.316;10.182;2023-11-19T00:45:39;8.40;;;4.73;;
37477;SDS011;23334;54.316;10.182;2023-11-19T00:48:05;9.03;;;4.40;;
37477;SDS011;23334;54.316;10.182;2023-11-19T00:50:31;10.80;;;5.33;;
37477;SDS011;23334;54.316;10.182;2023-11-19T00:52:57;6.47;;;3.90;;
37477;SDS011;23334;54.316;10.182;2023-11-19T00:55:23;7.73;;;4.17;;
37477;SDS011;23334;54.316;10.182;2023-11-19T00:57:48;12.23;;;5.50;;
37477;SDS011;23334;54.316;10.182;2023-11-19T01:00:14;6.13;;;4.37;;
37477;SDS011;23334;54.316;10.182;2023-11-19T01:02:45;15.47;;;4.90;;
37477;SDS011;23334;54.316;10.182;2023-11-19T01:05:11;8.77;;;4.47;;
37477;SDS011;23334;54.316;10.182;2023-11-19T01:07:40;8.10;;;4.77;;
37477;SDS011;23334;54.316;10.182;2023-11-19T01:10:06;8.77;;;4.33;;
37477;SDS011;23334;54.316;10.182;2023-11-19T01:12:33;6.53;;;4.10;;
37477;SDS011;23334;54.316;10.182;2023-11-19T01:14:59;7.20;;;4.33;;
37477;SDS011;23334;54.316;10.182;2023-11-19T01:17:26;5.10;;;4.13;;
37477;SDS011;23334;54.316;10.182;2023-11-19T01:19:51;4.60;;;3.70;;
37477;SDS011;23334;54.316;10.182;2023-11-19T01:22:17;7.47;;;3.90;;
37477;SDS011;23334;54.316;10.182;2023-11-19T01:24:44;10.37;;;3.80;;
37477;SDS011;23334;54.316;10.182;2023-11-19T01:27:09;7.07;;;3.93;;
37477;SDS011;23334;54.316;10.182;2023-11-19T01:29:35;5.47;;;3.27;;
37477;SDS011;23334;54.316;10.182;2023-11-19T01:32:03;5.80;;;3.63;;
37477;SDS011;23334;54.316;10.182;2023-11-19T01:34:29;2.93;;;2.60;;
37477;SDS011;23334;54.316;10.182;2023-11-19T01:36:55;13.23;;;4.10;;
37477;SDS011;23334;54.316;10.182;2023-11-19T01:39:21;5.50;;;4.10;;
37477;SDS011;23334;54.316;10.182;2023-11-19T01:41:47;9.67;;;3.70;;
37477;SDS011;23334;54.316;10.182;2023-11-19T01:44:13;6.90;;;4.00;;
37477;SDS011;23334;54.316;10.182;2023-11-19T01:46:43;6.80;;;3.03;;
37477;SDS011;23334;54.316;10.182;2023-11-19T01:49:10;5.63;;;3.60;;
37477;SDS011;23334;54.316;10.182;2023-11-19T01:51:36;7.07;;;3.93;;
37477;SDS011;23334;54.316;10.182;2023-11-19T01:54:03;5.93;;;3.30;;
37477;SDS011;23334;54.316;10.182;2023-11-19T01:56:29;9.27;;;3.70;;
37477;SDS011;23334;54.316;10.182;2023-11-19T01:58:56;17.30;;;5.23;;
37477;SDS011;23334;54.316;10.182;2023-11-19T02:01:22;6.53;;;3.50;;
37477;SDS011;23334;54.316;10.182;2023-11-19T02:03:49;7.07;;;2.90;;
37477;SDS011;23334;54.316;10.182;2023-11-19T02:06:15;5.27;;;3.00;;
37477;SDS011;23334;54.316;10.182;2023-11-19T02:08:41;3.10;;;2.57;;
37477;SDS011;23334;54.316;10.182;2023-11-19T02:11:08;6.60;;;2.90;;
37477;SDS011;23334;54.316;10.182;2023-11-19T02:13:34;6.83;;;3.53;;
37477;SDS011;23334;54.316;10.182;2023-11-19T02:16:02;14.57;;;3.57;;
37477;SDS011;23334;54.316;10.182;2023-11-19T02:18:28;10.67;;;3.30;;
37477;SDS011;23334;54.316;10.182;2023-11-19T02:20:55;7.77;;;3.17;;
37477;SDS011;23334;54.316;10.182;2023-11-19T02:23:21;3.43;;;2.17;;
37477;SDS011;23334;54.316;10.182;2023-11-19T02:25:48;3.17;;;2.17;;
37477;SDS011;23334;54.316;10.182;2023-11-19T02:28:36;8.37;;;3.10;;
37477;SDS011;23334;54.316;10.182;2023-11-19T02:31:02;6.77;;;2.30;;
37477;SDS011;23334;54.316;10.182;2023-11-19T02:33:34;6.53;;;2.43;;
37477;SDS011;23334;54.316;10.182;2023-11-19T02:36:01;7.83;;;2.33;;
37477;SDS011;23334;54.316;10.182;2023-11-19T02:38:28;5.07;;;2.07;;
37477;SDS011;23334;54.316;10.182;2023-11-19T02:40:55;3.60;;;1.43;;
37477;SDS011;23334;54.316;10.182;2023-11-19T02:43:21;6.00;;;1.73;;
37477;SDS011;23334;54.316;10.182;2023-11-19T02:45:47;5.40;;;2.00;;
37477;SDS011;23334;54.316;10.182;2023-11-19T02:48:14;3.97;;;2.10;;
37477;SDS011;23334;54.316;10.182;2023-11-19T02:50:41;3.80;;;1.70;;
37477;SDS011;23334;54.316;10.182;2023-11-19T02:53:07;4.83;;;2.00;;
37477;SDS011;23334;54.316;10.182;2023-11-19T02:55:33;2.10;;;1.43;;
37477;SDS011;23334;54.316;10.182;2023-11-19T02:58:03;3.23;;;1.60;;
37477;SDS011;23334;54.316;10.182;2023-11-19T03:00:39;13.53;;;2.93;;
37477;SDS011;23334;54.316;10.182;2023-11-19T03:03:12;2.67;;;2.10;;
37477;SDS011;23334;54.316;10.182;2023-11-19T03:05:51;4.73;;;1.63;;
37477;SDS011;23334;54.316;10.182;2023-11-19T03:08:16;7.77;;;2.00;;
37477;SDS011;23334;54.316;10.182;2023-11-19T03:10:42;5.83;;;1.80;;
37477;SDS011;23334;54.316;10.182;2023-11-19T03:13:12;3.63;;;1.50;;
37477;SDS011;23334;54.316;10.182;2023-11-19T03:15:44;3.37;;;1.47;;
37477;SDS011;23334;54.316;10.182;2023-11-19T03:18:10;4.40;;;1.57;;
37477;SDS011;23334;54.316;10.182;2023-11-19T03:20:36;2.43;;;1.30;;
37477;SDS011;23334;54.316;10.182;2023-11-19T03:23:02;3.53;;;1.50;;
37477;SDS011;23334;54.316;10.182;2023-11-19T03:25:28;6.87;;;1.83;;
37477;SDS011;23334;54.316;10.182;2023-11-19T03:27:58;4.97;;;1.47;;
37477;SDS011;23334;54.316;10.182;2023-11-19T03:30:25;4.93;;;1.40;;
37477;SDS011;23334;54.316;10.182;2023-11-19T03:32:51;6.10;;;1.70;;
37477;SDS011;23334;54.316;10.182;2023-11-19T03:35:17;2.10;;;0.80;;
37477;SDS011;23334;54.316;10.182;2023-11-19T03:37:42;6.03;;;1.40;;
37477;SDS011;23334;54.316;10.182;2023-11-19T03:40:09;1.73;;;0.83;;
37477;SDS011;23334;54.316;10.182;2023-11-19T03:42:35;2.70;;;1.13;;
37477;SDS011;23334;54.316;10.182;2023-11-19T03:45:01;3.70;;;1.10;;
37477;SDS011;23334;54.316;10.182;2023-11-19T03:47:29;6.73;;;1.93;;
37477;SDS011;23334;54.316;10.182;2023-11-19T03:49:54;7.40;;;1.43;;
37477;SDS011;23334;54.316;10.182;2023-11-19T03:52:20;4.43;;;1.17;;
37477;SDS011;23334;54.316;10.182;2023-11-19T03:54:46;6.17;;;1.17;;
37477;SDS011;23334;54.316;10.182;2023-11-19T03:57:12;1.23;;;0.70;;
37477;SDS011;23334;54.316;10.182;2023-11-19T03:59:38;3.90;;;0.93;;
37477;SDS011;23334;54.316;10.182;2023-11-19T04:02:04;5.20;;;1.17;;
37477;SDS011;23334;54.316;10.182;2023-11-19T04:04:31;9.83;;;1.40;;
37477;SDS011;23334;54.316;10.182;2023-11-19T04:06:56;7.50;;;1.83;;
37477;SDS011;23334;54.316;10.182;2023-11-19T04:09:23;14.53;;;2.20;;
37477;SDS011;23334;54.316;10.182;2023-11-19T04:11:49;2.50;;;0.90;;
37477;SDS011;23334;54.316;10.182;2023-11-19T04:14:15;3.30;;;1.20;;
37477;SDS011;23334;54.316;10.182;2023-11-19T04:16:43;6.60;;;1.50;;
37477;SDS011;23334;54.316;10.182;2023-11-19T04:19:11;2.60;;;1.07;;
37477;SDS011;23334;54.316;10.182;2023-11-19T04:21:39;4.87;;;1.30;;
37477;SDS011;23334;54.316;10.182;2023-11-19T04:24:06;6.67;;;1.47;;
37477;SDS011;23334;54.316;10.182;2023-11-19T04:26:32;2.23;;;1.13;;
37477;SDS011;23334;54.316;10.182;2023-11-19T04:28:59;3.33;;;1.00;;
37477;SDS011;23334;54.316;10.182;2023-11-19T04:31:28;3.10;;;1.17;;
37477;SDS011;23334;54.316;10.182;2023-11-19T04:33:56;2.63;;;1.00;;
37477;SDS011;23334;54.316;10.182;2023-11-19T04:36:22;4.20;;;1.23;;
37477;SDS011;23334;54.316;10.182;2023-11-19T04:38:49;11.53;;;2.37;;
37477;SDS011;23334;54.316;10.182;2023-11-19T04:41:15;2.93;;;1.30;;
37477;SDS011;23334;54.316;10.182;2023-11-19T04:43:41;10.80;;;2.00;;
37477;SDS011;23334;54.316;10.182;2023-11-19T04:46:07;24.40;;;3.20;;
37477;SDS011;23334;54.316;10.182;2023-11-19T04:48:32;3.80;;;1.57;;
37477;SDS011;23334;54.316;10.182;2023-11-19T04:50:58;5.00;;;1.47;;
37477;SDS011;23334;54.316;10.182;2023-11-19T04:53:24;3.77;;;1.30;;
37477;SDS011;23334;54.316;10.182;2023-11-19T04:55:50;5.83;;;1.23;;
37477;SDS011;23334;54.316;10.182;2023-11-19T04:58:17;7.47;;;1.93;;
37477;SDS011;23334;54.316;10.182;2023-11-19T05:00:42;2.70;;;1.20;;
37477;SDS011;23334;54.316;10.182;2023-11-19T05:03:08;1.60;;;0.83;;
37477;SDS011;23334;54.316;10.182;2023-11-19T05:05:34;10.37;;;2.17;;
37477;SDS011;23334;54.316;10.182;2023-11-19T05:08:00;3.20;;;1.07;;
37477;SDS011;23334;54.316;10.182;2023-11-19T05:10:26;7.43;;;1.57;;
37477;SDS011;23334;54.316;10.182;2023-11-19T05:12:51;4.87;;;1.50;;
37477;SDS011;23334;54.316;10.182;2023-11-19T05:15:17;4.23;;;1.30;;
37477;SDS011;23334;54.316;10.182;2023-11-19T05:17:43;4.17;;;1.20;;
37477;SDS011;23334;54.316;10.182;2023-11-19T05:20:08;3.33;;;1.00;;
37477;SDS011;23334;54.316;10.182;2023-11-19T05:22:39;4.27;;;0.97;;
37477;SDS011;23334;54.316;10.182;2023-11-19T05:25:05;4.73;;;1.30;;
37477;SDS011;23334;54.316;10.182;2023-11-19T05:27:31;4.73;;;1.23;;
37477;SDS011;23334;54.316;10.182;2023-11-19T05:29:56;5.17;;;1.40;;
37477;SDS011;23334;54.316;10.182;2023-11-19T05:32:22;5.13;;;1.33;;
37477;SDS011;23334;54.316;10.182;2023-11-19T05:34:48;7.37;;;2.00;;
37477;SDS011;23334;54.316;10.182;2023-11-19T05:37:14;2.40;;;1.63;;
37477;SDS011;23334;54.316;10.182;2023-11-19T05:39:40;2.90;;;1.30;;
37477;SDS011;23334;54.316;10.182;2023-11-19T05:42:06;3.90;;;1.27;;
37477;SDS011;23334;54.316;10.182;2023-11-19T05:44:32;3.47;;;1.30;;
37477;SDS011;23334;54.316;10.182;2023-11-19T05:46:57;5.67;;;1.90;;
37477;SDS011;23334;54.316;10.182;2023-11-19T05:49:23;3.40;;;1.20;;
37477;SDS011;23334;54.316;10.182;2023-11-19T05:51:49;8.00;;;2.00;;
37477;SDS011;23334;54.316;10.182;2023-11-19T05:54:16;4.87;;;1.83;;
37477;SDS011;23334;54.316;10.182;2023-11-19T05:56:41;11.00;;;2.07;;
37477;SDS011;23334;54.316;10.182;2023-11-19T05:59:13;3.57;;;1.67;;
37477;SDS011;23334;54.316;10.182;2023-11-19T06:01:39;4.10;;;1.37;;
37477;SDS011;23334;54.316;10.182;2023-11-19T06:04:06;3.43;;;1.73;;
37477;SDS011;23334;54.316;10.182;2023-11-19T06:06:32;4.53;;;1.80;;
37477;SDS011;23334;54.316;10.182;2023-11-19T06:08:59;12.87;;;2.60;;
37477;SDS011;23334;54.316;10.182;2023-11-19T06:11:25;7.07;;;2.10;;
37477;SDS011;23334;54.316;10.182;2023-11-19T06:13:51;7.83;;;2.33;;
37477;SDS011;23334;54.316;10.182;2023-11-19T06:16:18;4.33;;;1.57;;
37477;SDS011;23334;54.316;10.182;2023-11-19T06:18:43;8.70;;;2.53;;
37477;SDS011;23334;54.316;10.182;2023-11-19T06:21:09;10.63;;;2.90;;
37477;SDS011;23334;54.316;10.182;2023-11-19T06:23:35;17.43;;;3.53;;
37477;SDS011;23334;54.316;10.182;2023-11-19T06:26:01;14.37;;;2.97;;
37477;SDS011;23334;54.316;10.182;2023-11-19T06:28:27;7.50;;;3.00;;
37477;SDS011;23334;54.316;10.182;2023-11-19T06:30:53;5.40;;;2.40;;
37477;SDS011;23334;54.316;10.182;2023-11-19T06:33:19;5.47;;;2.70;;
37477;SDS011;23334;54.316;10.182;2023-11-19T06:35:44;8.20;;;3.00;;
37477;SDS011;23334;54.316;10.182;2023-11-19T06:38:10;4.90;;;2.40;;
37477;SDS011;23334;54.316;10.182;2023-11-19T06:40:36;8.83;;;3.27;;
37477;SDS011;23334;54.316;10.182;2023-11-19T06:43:03;5.73;;;3.03;;
37477;SDS011;23334;54.316;10.182;2023-11-19T06:45:29;13.37;;;3.70;;
37477;SDS011;23334;54.316;10.182;2023-11-19T06:47:55;9.10;;;3.67;;
37477;SDS011;23334;54.316;10.182;2023-11-19T06:50:21;6.50;;;3.20;;
37477;SDS011;23334;54.316;10.182;2023-11-19T06:52:48;12.77;;;3.80;;
37477;SDS011;23334;54.316;10.182;2023-11-19T06:55:14;16.77;;;4.30;;
37477;SDS011;23334;54.316;10.182;2023-11-19T06:57:40;13.57;;;4.03;;
37477;SDS011;23334;54.316;10.182;2023-11-19T07:00:06;10.50;;;3.70;;
37477;SDS011;23334;54.316;10.182;2023-11-19T07:02:33;21.63;;;4.77;;
37477;SDS011;23334;54.316;10.182;2023-11-19T07:04:59;13.20;;;5.10;;
37477;SDS011;23334;54.316;10.182;2023-11-19T07:07:25;8.90;;;4.30;;
37477;SDS011;23334;54.316;10.182;2023-11-19T07:09:51;17.23;;;5.20;;
37477;SDS011;23334;54.316;10.182;2023-11-19T07:12:17;12.07;;;5.00;;
37477;SDS011;23334;54.316;10.182;2023-11-19T07:14:43;12.40;;;4.47;;
37477;SDS011;23334;54.316;10.182;2023-11-19T07:17:09;12.00;;;5.20;;
37477;SDS011;23334;54.316;10.182;2023-11-19T07:19:35;14.83;;;4.60;;
37477;SDS011;23334;54.316;10.182;2023-11-19T07:22:02;22.20;;;5.90;;
37477;SDS011;23334;54.316;10.182;2023-11-19T07:24:28;14.77;;;6.43;;
37477;SDS011;23334;54.316;10.182;2023-11-19T07:26:54;41.00;;;8.53;;
37477;SDS011;23334;54.316;10.182;2023-11-19T07:29:20;14.47;;;5.90;;
37477;SDS011;23334;54.316;10.182;2023-11-19T07:31:47;15.33;;;6.43;;
37477;SDS011;23334;54.316;10.182;2023-11-19T07:34:13;13.10;;;5.50;;
37477;SDS011;23334;54.316;10.182;2023-11-19T07:36:39;15.40;;;6.30;;
37477;SDS011;23334;54.316;10.182;2023-11-19T07:39:06;16.40;;;6.30;;
37477;SDS011;23334;54.316;10.182;2023-11-19T07:41:33;14.70;;;5.77;;
37477;SDS011;23334;54.316;10.182;2023-11-19T07:44:00;18.13;;;6.50;;
37477;SDS011;23334;54.316;10.182;2023-11-19T07:46:26;10.83;;;5.27;;
37477;SDS011;23334;54.316;10.182;2023-11-19T07:48:52;20.43;;;6.67;;
37477;SDS011;23334;54.316;10.182;2023-11-19T07:51:18;13.53;;;5.97;;
37477;SDS011;23334;54.316;10.182;2023-11-19T07:53:43;18.47;;;7.33;;
37477;SDS011;23334;54.316;10.182;2023-11-19T07:56:09;11.60;;;4.73;;
37477;SDS011;23334;54.316;10.182;2023-11-19T07:58:35;21.47;;;6.27;;
37477;SDS011;23334;54.316;10.182;2023-11-19T08:01:01;14.83;;;5.60;;
37477;SDS011;23334;54.316;10.182;2023-11-19T08:03:27;23.93;;;6.57;;
37477;SDS011;23334;54.316;10.182;2023-11-19T08:05:57;23.83;;;6.00;;
37477;SDS011;23334;54.316;10.182;2023-11-19T08:08:23;12.93;;;5.23;;
37477;SDS011;23334;54.316;10.182;2023-11-19T08:10:49;18.60;;;5.60;;
37477;SDS011;23334;54.316;10.182;2023-11-19T08:13:17;28.37;;;5.87;;
37477;SDS011;23334;54.316;10.182;2023-11-19T08:15:43;17.10;;;5.50;;
37477;SDS011;23334;54.316;10.182;2023-11-19T08:18:08;24.50;;;5.50;;
37477;SDS011;23334;54.316;10.182;2023-11-19T08:20:34;14.83;;;5.00;;
37477;SDS011;23334;54.316;10.182;2023-11-19T08:23:01;27.30;;;5.57;;
37477;SDS011;23334;54.316;10.182;2023-11-19T08:25:28;26.07;;;3.90;;
37477;SDS011;23334;54.316;10.182;2023-11-19T08:27:54;27.80;;;4.90;;
37477;SDS011;23334;54.316;10.182;2023-11-19T08:30:19;16.97;;;3.90;;
37477;SDS011;23334;54.316;10.182;2023-11-19T08:32:45;17.47;;;4.03;;
37477;SDS011;23334;54.316;10.182;2023-11-19T08:35:11;26.03;;;3.80;;
37477;SDS011;23334;54.316;10.182;2023-11-19T08:37:37;33.20;;;5.13;;
37477;SDS011;23334;54.316;10.182;2023-11-19T08:40:03;28.13;;;4.57;;
37477;SDS011;23334;54.316;10.182;2023-11-19T08:42:30;19.90;;;3.20;;
37477;SDS011;23334;54.316;10.182;2023-11-19T08:44:56;20.33;;;4.10;;
37477;SDS011;23334;54.316;10.182;2023-11-19T08:47:22;40.60;;;4.37;;
37477;SDS011;23334;54.316;10.182;2023-11-19T08:49:48;29.27;;;5.00;;
37477;SDS011;23334;54.316;10.182;2023-11-19T08:52:17;45.87;;;5.73;;
37477;SDS011;23334;54.316;10.182;2023-11-19T08:54:43;43.27;;;5.70;;
37477;SDS011;23334;54.316;10.182;2023-11-19T08:57:08;27.83;;;3.90;;
37477;SDS011;23334;54.316;10.182;2023-11-19T08:59:34;22.53;;;3.73;;
37477;SDS011;23334;54.316;10.182;2023-11-19T09:02:00;25.43;;;4.40;;
37477;SDS011;23334;54.316;10.182;2023-11-19T09:04:26;17.57;;;3.73;;
37477;SDS011;23334;54.316;10.182;2023-11-19T09:06:52;29.53;;;4.63;;
37477;SDS011;23334;54.316;10.182;2023-11-19T09:09:18;28.63;;;4.70;;
37477;SDS011;23334;54.316;10.182;2023-11-19T09:11:44;36.53;;;5.20;;
37477;SDS011;23334;54.316;10.182;2023-11-19T09:14:10;34.17;;;5.60;;
37477;SDS011;23334;54.316;10.182;2023-11-19T09:16:36;29.73;;;4.57;;
37477;SDS011;23334;54.316;10.182;2023-11-19T09:19:01;27.37;;;5.00;;
37477;SDS011;23334;54.316;10.182;2023-11-19T09:21:27;35.40;;;5.50;;
37477;SDS011;23334;54.316;10.182;2023-11-19T09:23:57;31.50;;;5.53;;
37477;SDS011;23334;54.316;10.182;2023-11-19T09:26:22;25.37;;;5.80;;
37477;SDS011;23334;54.316;10.182;2023-11-19T09:28:49;30.83;;;5.83;;
37477;SDS011;23334;54.316;10.182;2023-11-19T09:31:15;17.70;;;4.00;;
37477;SDS011;23334;54.316;10.182;2023-11-19T09:33:42;33.13;;;4.93;;
37477;SDS011;23334;54.316;10.182;2023-11-19T09:36:08;39.87;;;5.70;;
37477;SDS011;23334;54.316;10.182;2023-11-19T09:38:35;28.30;;;5.77;;
37477;SDS011;23334;54.316;10.182;2023-11-19T09:41:04;33.00;;;4.90;;
37477;SDS011;23334;54.316;10.182;2023-11-19T09:43:34;48.60;;;5.67;;
37477;SDS011;23334;54.316;10.182;2023-11-19T09:46:03;32.20;;;5.63;;
37477;SDS011;23334;54.316;10.182;2023-11-19T09:48:32;52.90;;;8.00;;
37477;SDS011;23334;54.316;10.182;2023-11-19T09:50:58;28.03;;;5.33;;
37477;SDS011;23334;54.316;10.182;2023-11-19T09:53:24;49.03;;;6.13;;
37477;SDS011;23334;54.316;10.182;2023-11-19T09:55:50;41.70;;;5.43;;
37477;SDS011;23334;54.316;10.182;2023-11-19T09:58:17;35.67;;;6.00;;
37477;SDS011;23334;54.316;10.182;2023-11-19T10:00:43;38.83;;;5.90;;
37477;SDS011;23334;54.316;10.182;2023-11-19T10:03:09;27.70;;;4.27;;
37477;SDS011;23334;54.316;10.182;2023-11-19T10:05:37;48.33;;;5.70;;
37477;SDS011;23334;54.316;10.182;2023-11-19T10:08:04;38.40;;;5.73;;
37477;SDS011;23334;54.316;10.182;2023-11-19T10:10:30;32.03;;;5.90;;
37477;SDS011;23334;54.316;10.182;2023-11-19T10:12:56;29.47;;;5.20;;
37477;SDS011;23334;54.316;10.182;2023-11-19T10:15:23;26.50;;;4.63;;
37477;SDS011;23334;54.316;10.182;2023-11-19T10:17:54;48.70;;;5.90;;
37477;SDS011;23334;54.316;10.182;2023-11-19T10:20:21;29.60;;;4.60;;
37477;SDS011;23334;54.316;10.182;2023-11-19T10:22:47;33.90;;;4.73;;
37477;SDS011;23334;54.316;10.182;2023-11-19T10:25:21;24.00;;;4.40;;
37477;SDS011;23334;54.316;10.182;2023-11-19T10:27:47;31.77;;;4.70;;
37477;SDS011;23334;54.316;10.182;2023-11-19T10:30:20;34.93;;;4.97;;
37477;SDS011;23334;54.316;10.182;2023-11-19T10:33:00;26.30;;;5.60;;
37477;SDS011;23334;54.316;10.182;2023-11-19T10:35:34;23.37;;;3.80;;
37477;SDS011;23334;54.316;10.182;2023-11-19T10:38:01;26.90;;;4.60;;
37477;SDS011;23334;54.316;10.182;2023-11-19T10:40:39;21.10;;;4.30;;
37477;SDS011;23334;54.316;10.182;2023-11-19T10:43:05;26.63;;;4.40;;
37477;SDS011;23334;54.316;10.182;2023-11-19T10:45:32;23.83;;;4.63;;
37477;SDS011;23334;54.316;10.182;2023-11-19T10:47:58;25.10;;;4.70;;
37477;SDS011;23334;54.316;10.182;2023-11-19T10:50:25;25.67;;;5.67;;
37477;SDS011;23334;54.316;10.182;2023-11-19T10:52:52;34.10;;;5.40;;
37477;SDS011;23334;54.316;10.182;2023-11-19T10:55:24;23.03;;;3.70;;
37477;SDS011;23334;54.316;10.182;2023-11-19T10:57:53;27.63;;;4.70;;
37477;SDS011;23334;54.316;10.182;2023-11-19T11:00:25;20.13;;;4.30;;
37477;SDS011;23334;54.316;10.182;2023-11-19T11:02:52;23.10;;;4.20;;
37477;SDS011;23334;54.316;10.182;2023-11-19T11:05:21;26.80;;;5.10;;
37477;SDS011;23334;54.316;10.182;2023-11-19T11:07:48;35.43;;;4.77;;
37477;SDS011;23334;54.316;10.182;2023-11-19T11:10:14;28.57;;;4.50;;
37477;SDS011;23334;54.316;10.182;2023-11-19T11:12:41;31.20;;;5.00;;
37477;SDS011;23334;54.316;10.182;2023-11-19T11:15:08;27.67;;;4.93;;
37477;SDS011;23334;54.316;10.182;2023-11-19T11:17:40;25.80;;;5.30;;
37477;SDS011;23334;54.316;10.182;2023-11-19T11:20:07;35.67;;;7.10;;
37477;SDS011;23334;54.316;10.182;2023-11-19T11:22:36;39.77;;;5.17;;
37477;SDS011;23334;54.316;10.182;2023-11-19T11:25:19;33.73;;;5.60;;
37477;SDS011;23334;54.316;10.182;2023-11-19T11:27:52;41.87;;;4.57;;
37477;SDS011;23334;54.316;10.182;2023-11-19T11:30:27;30.03;;;6.23;;
37477;SDS011;23334;54.316;10.182;2023-11-19T11:37:55;35.90;;;5.57;;
37477;SDS011;23334;54.316;10.182;2023-11-19T11:40:23;49.60;;;6.80;;
37477;SDS011;23334;54.316;10.182;2023-11-19T11:42:51;38.13;;;5.30;;
37477;SDS011;23334;54.316;10.182;2023-11-19T11:45:18;30.40;;;4.97;;
37477;SDS011;23334;54.316;10.182;2023-11-19T11:50:20;43.37;;;6.03;;
37477;SDS011;23334;54.316;10.182;2023-11-19T11:55:34;25.00;;;4.53;;
37477;SDS011;23334;54.316;10.182;2023-11-19T11:58:01;35.47;;;5.37;;
37477;SDS011;23334;54.316;10.182;2023-11-19T12:00:28;29.57;;;5.30;;
37477;SDS011;23334;54.316;10.182;2023-11-19T12:02:55;46.20;;;6.40;;
37477;SDS011;23334;54.316;10.182;2023-11-19T12:05:25;35.83;;;5.80;;
37477;SDS011;23334;54.316;10.182;2023-11-19T12:07:54;29.97;;;5.20;;
37477;SDS011;23334;54.316;10.182;2023-11-19T12:10:32;42.43;;;5.80;;
37477;SDS011;23334;54.316;10.182;2023-11-19T12:12:58;29.93;;;6.30;;
37477;SDS011;23334;54.316;10.182;2023-11-19T12:15:25;42.07;;;5.50;;
37477;SDS011;23334;54.316;10.182;2023-11-19T12:17:52;40.73;;;6.20;;
37477;SDS011;23334;54.316;10.182;2023-11-19T12:20:19;32.47;;;5.37;;
37477;SDS011;23334;54.316;10.182;2023-11-19T12:22:47;35.80;;;5.27;;
37477;SDS011;23334;54.316;10.182;2023-11-19T12:25:14;32.97;;;5.17;;
37477;SDS011;23334;54.316;10.182;2023-11-19T12:27:45;44.43;;;6.13;;
37477;SDS011;23334;54.316;10.182;2023-11-19T12:30:11;27.97;;;5.30;;
37477;SDS011;23334;54.316;10.182;2023-11-19T12:32:41;31.13;;;6.43;;
37477;SDS011;23334;54.316;10.182;2023-11-19T12:35:10;31.27;;;5.03;;
37477;SDS011;23334;54.316;10.182;2023-11-19T12:37:40;48.83;;;6.93;;
37477;SDS011;23334;54.316;10.182;2023-11-19T12:40:17;32.17;;;5.33;;
37477;SDS011;23334;54.316;10.182;2023-11-19T12:42:47;34.97;;;5.70;;
37477;SDS011;23334;54.316;10.182;2023-11-19T12:45:13;33.63;;;4.70;;
37477;SDS011;23334;54.316;10.182;2023-11-19T12:47:41;36.37;;;4.73;;
37477;SDS011;23334;54.316;10.182;2023-11-19T12:50:07;19.13;;;3.67;;
37477;SDS011;23334;54.316;10.182;2023-11-19T12:52:37;37.80;;;4.90;;
37477;SDS011;23334;54.316;10.182;2023-11-19T12:55:04;65.37;;;6.53;;
37477;SDS011;23334;54.316;10.182;2023-11-19T12:57:38;21.77;;;4.10;;
37477;SDS011;23334;54.316;10.182;2023-11-19T13:00:05;24.90;;;4.00;;
37477;SDS011;23334;54.316;10.182;2023-11-19T13:02:44;31.90;;;4.43;;
37477;SDS011;23334;54.316;10.182;2023-11-19T13:05:21;28.10;;;3.30;;
37477;SDS011;23334;54.316;10.182;2023-11-19T13:07:47;29.53;;;4.30;;
37477;SDS011;23334;54.316;10.182;2023-11-19T13:10:13;29.33;;;4.70;;
37477;SDS011;23334;54.316;10.182;2023-11-19T13:12:40;25.10;;;4.10;;
37477;SDS011;23334;54.316;10.182;2023-11-19T13:15:06;30.23;;;4.30;;
37477;SDS011;23334;54.316;10.182;2023-11-19T13:17:47;37.07;;;6.03;;
37477;SDS011;23334;54.316;10.182;2023-11-19T13:20:12;29.03;;;5.43;;
37477;SDS011;23334;54.316;10.182;2023-11-19T13:22:39;18.43;;;4.17;;
37477;SDS011;23334;54.316;10.182;2023-11-19T13:25:05;33.80;;;4.70;;
37477;SDS011;23334;54.316;10.182;2023-11-19T13:27:31;17.93;;;3.97;;
37477;SDS011;23334;54.316;10.182;2023-11-19T13:29:56;25.33;;;4.50;;
37477;SDS011;23334;54.316;10.182;2023-11-19T13:32:22;13.07;;;3.23;;
37477;SDS011;23334;54.316;10.182;2023-11-19T13:34:48;27.07;;;3.97;;
37477;SDS011;23334;54.316;10.182;2023-11-19T13:37:13;27.13;;;3.77;;
37477;SDS011;23334;54.316;10.182;2023-11-19T13:39:41;29.73;;;5.17;;
37477;SDS011;23334;54.316;10.182;2023-11-19T13:42:07;24.80;;;3.73;;
37477;SDS011;23334;54.316;10.182;2023-11-19T13:44:34;26.53;;;4.47;;
37477;SDS011;23334;54.316;10.182;2023-11-19T13:46:59;37.83;;;5.57;;
37477;SDS011;23334;54.316;10.182;2023-11-19T13:49:25;20.00;;;4.27;;
37477;SDS011;23334;54.316;10.182;2023-11-19T13:51:52;26.83;;;5.23;;
37477;SDS011;23334;54.316;10.182;2023-11-19T13:54:19;25.93;;;3.90;;
37477;SDS011;23334;54.316;10.182;2023-11-19T13:56:46;26.50;;;4.80;;
37477;SDS011;23334;54.316;10.182;2023-11-19T13:59:11;39.27;;;5.10;;
37477;SDS011;23334;54.316;10.182;2023-11-19T14:01:37;17.70;;;4.00;;
37477;SDS011;23334;54.316;10.182;2023-11-19T14:04:03;18.70;;;3.70;;
37477;SDS011;23334;54.316;10.182;2023-11-19T14:06:30;28.17;;;4.27;;
37477;SDS011;23334;54.316;10.182;2023-11-19T14:08:56;22.70;;;4.33;;
37477;SDS011;23334;54.316;10.182;2023-11-19T14:11:22;59.23;;;7.10;;
37477;SDS011;23334;54.316;10.182;2023-11-19T14:13:47;28.60;;;6.10;;
37477;SDS011;23334;54.316;10.182;2023-11-19T14:16:15;23.20;;;4.77;;
37477;SDS011;23334;54.316;10.182;2023-11-19T14:18:41;35.37;;;5.50;;
37477;SDS011;23334;54.316;10.182;2023-11-19T14:21:06;28.43;;;5.00;;
37477;SDS011;23334;54.316;10.182;2023-11-19T14:23:32;34.03;;;4.40;;
37477;SDS011;23334;54.316;10.182;2023-11-19T14:25:58;25.03;;;4.87;;
37477;SDS011;23334;54.316;10.182;2023-11-19T14:28:24;35.30;;;4.80;;
37477;SDS011;23334;54.316;10.182;2023-11-19T14:30:51;23.77;;;4.50;;
37477;SDS011;23334;54.316;10.182;2023-11-19T14:33:21;26.87;;;4.77;;
37477;SDS011;23334;54.316;10.182;2023-11-19T14:35:47;31.60;;;4.57;;